Time;durP1;ratioP1;P1;durP2;ratioP2;P2;SDS_P1;SDS_P2;PMS_P1;PMS_P2;Temp;Humidity;BMP_temperature;BMP_pressure;BME280_temperature;BME280_humidity;BME280_pressure;Samples;Min_cycle;Max_cycle;Signal;HPM_P1;HPM_P2
2022/12/18 00:00:42;;;;;;;58.95;32.20;;;0.50;99.90;;;;;;5031249;28;20057;-85
2022/12/18 00:03:09;;;;;;;62.63;33.63;;;0.50;99.90;;;;;;5031033;28;20032;-85
2022/12/18 00:05:35;;;;;;;62.35;31.25;;;0.50;99.90;;;;;;5012304;28;20432;-84
2022/12/18 00:08:00;;;;;;;58.35;32.25;;;0.50;99.90;;;;;;5030815;28;20513;-85
2022/12/18 00:10:27;;;;;;;57.45;30.92;;;0.50;99.90;;;;;;5030913;28;20033;-85
2022/12/18 00:12:53;;;;;;;60.70;31.50;;;0.50;99.90;;;;;;5030911;28;20108;-85
2022/12/18 00:15:19;;;;;;;68.78;33.45;;;0.50;99.90;;;;;;5031114;28;20120;-85
2022/12/18 00:17:44;;;;;;;63.63;33.22;;;0.30;99.90;;;;;;5013451;28;20050;-84
2022/12/18 00:20:10;;;;;;;58.25;31.02;;;0.30;99.90;;;;;;5030313;28;20033;-85
2022/12/18 00:22:36;;;;;;;58.13;29.55;;;0.30;99.90;;;;;;5013415;28;20036;-85
2022/12/18 00:25:02;;;;;;;61.55;28.52;;;0.30;99.90;;;;;;5027276;28;20108;-85
2022/12/18 00:27:27;;;;;;;57.78;27.63;;;-0.10;99.90;;;;;;5017473;28;20091;-84
2022/12/18 00:29:53;;;;;;;54.03;25.13;;;-0.20;99.90;;;;;;5034015;28;20034;-85
2022/12/18 00:32:18;;;;;;;58.60;25.80;;;-0.40;99.90;;;;;;5035383;28;20078;-84
2022/12/18 00:34:44;;;;;;;55.00;25.35;;;-0.30;99.90;;;;;;5034506;28;20046;-85
2022/12/18 00:37:10;;;;;;;48.80;23.17;;;-0.30;99.90;;;;;;5035136;28;20018;-84
2022/12/18 00:39:35;;;;;;;59.00;26.02;;;-0.30;99.90;;;;;;5034522;28;20040;-85
2022/12/18 00:44:45;;;;;;;55.60;26.25;;;-0.50;99.90;;;;;;5033876;28;20543;-85
2022/12/18 00:47:10;;;;;;;57.67;27.83;;;-0.60;99.90;;;;;;5034899;28;20017;-85
2022/12/18 00:49:36;;;;;;;57.25;25.67;;;-0.40;99.90;;;;;;5017134;28;20041;-84
2022/12/18 00:52:02;;;;;;;58.35;27.55;;;-0.40;99.90;;;;;;5034597;28;20565;-84
2022/12/18 00:54:27;;;;;;;59.55;27.42;;;-0.40;99.90;;;;;;5034223;28;20051;-85
2022/12/18 00:56:54;;;;;;;61.13;26.98;;;-0.50;99.90;;;;;;5034666;28;20026;-84
2022/12/18 00:59:20;;;;;;;56.65;26.35;;;-0.50;99.90;;;;;;5034308;28;20402;-85
2022/12/18 01:01:47;;;;;;;57.47;27.52;;;-0.50;99.90;;;;;;5033787;28;20096;-85
2022/12/18 01:04:13;;;;;;;60.10;28.10;;;-0.50;99.90;;;;;;5033963;28;20100;-84
2022/12/18 01:06:38;;;;;;;62.65;28.35;;;-0.60;99.90;;;;;;5034304;28;20109;-85
2022/12/18 01:09:04;;;;;;;62.15;27.60;;;-0.60;99.90;;;;;;5034549;28;20389;-84
2022/12/18 01:11:30;;;;;;;61.53;27.25;;;-0.50;99.90;;;;;;5034220;28;20091;-85
2022/12/18 01:13:56;;;;;;;61.78;28.23;;;-0.20;99.90;;;;;;5032488;28;20071;-85
2022/12/18 01:16:22;;;;;;;64.57;28.90;;;-0.60;99.90;;;;;;5028559;28;20065;-85
2022/12/18 01:18:52;;;;;;;63.75;29.38;;;-0.60;99.90;;;;;;5014339;28;20471;-84
2022/12/18 01:21:17;;;;;;;66.40;29.60;;;-0.70;99.90;;;;;;5009481;28;20022;-85
2022/12/18 01:23:43;;;;;;;62.47;28.55;;;-0.70;99.90;;;;;;5034033;28;20039;-85
2022/12/18 01:26:11;;;;;;;62.72;27.83;;;-0.70;99.90;;;;;;5034302;28;20056;-84
2022/12/18 01:28:37;;;;;;;63.15;29.00;;;-0.70;99.90;;;;;;5033811;28;20083;-85
2022/12/18 01:31:10;;;;;;;71.85;30.63;;;-0.70;99.90;;;;;;5034368;28;20033;-84
2022/12/18 01:33:36;;;;;;;64.03;30.23;;;-0.40;99.90;;;;;;5032661;28;20516;-84
2022/12/18 01:36:02;;;;;;;64.03;28.65;;;-0.80;99.90;;;;;;5032133;28;20029;-85
2022/12/18 01:38:28;;;;;;;64.57;30.45;;;-0.90;99.90;;;;;;5020518;28;20454;-84
2022/12/18 01:41:01;;;;;;;71.25;29.95;;;-0.90;99.90;;;;;;5014033;28;20367;-84
2022/12/18 01:43:50;;;;;;;67.10;29.35;;;-0.80;99.90;;;;;;5033499;28;20071;-84
2022/12/18 01:46:17;;;;;;;70.43;30.38;;;-0.80;99.90;;;;;;5033802;28;20117;-84
2022/12/18 01:48:46;;;;;;;70.07;29.13;;;-0.90;99.90;;;;;;5015824;28;20026;-84
2022/12/18 01:51:12;;;;;;;63.83;29.13;;;-0.90;99.90;;;;;;5033623;28;20028;-84
2022/12/18 01:53:41;;;;;;;66.63;30.10;;;-0.90;99.90;;;;;;5029217;28;20037;-85
2022/12/18 01:56:07;;;;;;;69.35;30.50;;;-0.90;99.90;;;;;;5013695;28;20372;-85
2022/12/18 01:58:40;;;;;;;65.18;29.02;;;-0.90;99.90;;;;;;5010802;28;20033;-84
2022/12/18 02:01:05;;;;;;;63.08;28.95;;;-1.00;99.90;;;;;;5033026;28;20583;-84
2022/12/18 02:03:31;;;;;;;63.90;29.70;;;-1.10;99.90;;;;;;5033389;28;20033;-84
2022/12/18 02:06:22;;;;;;;68.82;29.98;;;-1.00;99.90;;;;;;5033079;28;20029;-84
2022/12/18 02:08:50;;;;;;;69.68;30.23;;;-1.00;99.90;;;;;;5033220;28;20061;-85
2022/12/18 02:11:31;;;;;;;66.43;29.85;;;-1.00;99.90;;;;;;5032327;28;20104;-85
2022/12/18 02:14:15;;;;;;;65.78;27.60;;;-1.00;99.90;;;;;;5032409;28;20041;-84
2022/12/18 02:17:17;;;;;;;66.80;28.98;;;-1.00;99.90;;;;;;5032470;28;20402;-84
2022/12/18 02:20:04;;;;;;;66.93;29.15;;;-1.00;99.90;;;;;;4971916;28;20046;-84
2022/12/18 02:22:41;;;;;;;62.58;28.98;;;-1.00;99.90;;;;;;4955630;28;20622;-84
2022/12/18 02:25:40;;;;;;;65.57;30.40;;;-1.10;99.90;;;;;;4972179;28;20162;-84
2022/12/18 02:28:11;;;;;;;62.20;27.70;;;-1.10;99.90;;;;;;4971711;28;20046;-85
2022/12/18 02:30:39;;;;;;;59.97;27.90;;;-1.00;99.90;;;;;;4971146;28;20102;-85
2022/12/18 02:33:07;;;;;;;58.80;26.95;;;-1.10;99.90;;;;;;4971568;28;20042;-84
2022/12/18 02:35:35;;;;;;;60.08;26.80;;;-1.10;99.90;;;;;;4971661;28;20031;-84
2022/12/18 02:38:03;;;;;;;56.83;27.08;;;-1.10;99.90;;;;;;4954622;28;20034;-84
2022/12/18 02:40:29;;;;;;;56.00;27.92;;;-1.00;99.90;;;;;;4971273;28;20062;-84
2022/12/18 02:42:55;;;;;;;54.55;26.40;;;-1.00;99.90;;;;;;4971682;28;20034;-84
2022/12/18 02:45:21;;;;;;;54.47;26.90;;;-1.00;99.90;;;;;;4951523;28;20089;-84
2022/12/18 02:47:49;;;;;;;55.15;26.80;;;-0.90;99.90;;;;;;4971312;28;20169;-84
2022/12/18 02:50:53;;;;;;;55.70;27.45;;;-0.80;99.90;;;;;;4971545;28;20058;-84
2022/12/18 02:53:31;;;;;;;56.42;27.65;;;-0.80;99.90;;;;;;4992972;28;20098;-84
2022/12/18 02:56:18;;;;;;;57.70;27.23;;;-0.90;99.90;;;;;;5031910;28;20018;-84
2022/12/18 02:58:50;;;;;;;54.33;27.02;;;-0.90;99.90;;;;;;5032296;28;20095;-84
2022/12/18 03:01:50;;;;;;;57.30;27.25;;;-0.90;99.90;;;;;;5032073;28;20026;-84
2022/12/18 03:04:28;;;;;;;53.28;25.23;;;-0.90;99.90;;;;;;4971152;28;20134;-84
2022/12/18 03:06:58;;;;;;;52.92;25.80;;;-0.90;99.90;;;;;;4971054;28;20031;-84
2022/12/18 03:09:34;;;;;;;58.63;25.85;;;-0.90;99.90;;;;;;4970920;28;20047;-84
2022/12/18 03:12:32;;;;;;;59.22;26.17;;;-0.90;99.90;;;;;;4955381;28;20031;-85
2022/12/18 03:15:07;;;;;;;54.78;25.98;;;-0.80;99.90;;;;;;4970298;28;20058;-84
2022/12/18 03:17:34;;;;;;;53.10;24.75;;;-0.90;99.90;;;;;;4952359;28;20126;-85
2022/12/18 03:20:13;;;;;;;56.95;26.02;;;-0.80;99.90;;;;;;4959554;28;20038;-84
2022/12/18 03:22:41;;;;;;;54.05;25.60;;;-0.90;99.90;;;;;;4971070;28;20125;-85
2022/12/18 03:25:12;;;;;;;51.70;26.55;;;-0.80;99.90;;;;;;4970685;28;20042;-84
2022/12/18 03:27:44;;;;;;;54.38;26.20;;;-0.80;99.90;;;;;;4950890;29;20093;-84
2022/12/18 03:30:13;;;;;;;57.80;26.95;;;-0.80;99.90;;;;;;4967716;28;20041;-84
2022/12/18 03:32:50;;;;;;;55.88;26.05;;;-0.80;99.90;;;;;;4970924;28;20031;-85
2022/12/18 03:35:21;;;;;;;53.00;25.50;;;-0.70;99.90;;;;;;4947288;28;20061;-85
2022/12/18 03:37:46;;;;;;;55.28;25.83;;;-0.80;99.90;;;;;;4971096;28;20062;-85
2022/12/18 03:40:12;;;;;;;50.25;25.67;;;-0.80;99.90;;;;;;4974297;28;20460;-84
2022/12/18 03:42:51;;;;;;;51.78;26.40;;;-0.80;99.90;;;;;;5031605;28;20072;-84
2022/12/18 03:45:31;;;;;;;52.72;25.08;;;-0.80;99.90;;;;;;5031515;28;20078;-84
2022/12/18 03:48:08;;;;;;;51.17;24.48;;;-0.70;99.90;;;;;;5030905;28;20041;-84
2022/12/18 03:50:52;;;;;;;49.35;24.40;;;-0.60;99.90;;;;;;5012530;28;20026;-84
2022/12/18 03:53:47;;;;;;;49.85;24.17;;;-0.60;99.90;;;;;;5023685;28;20037;-84
2022/12/18 03:56:16;;;;;;;50.22;24.60;;;-0.60;99.90;;;;;;5032240;28;20033;-85
2022/12/18 03:58:43;;;;;;;46.88;23.95;;;-0.60;99.90;;;;;;5045732;28;20029;-84
2022/12/18 04:01:13;;;;;;;53.05;24.65;;;-0.60;99.90;;;;;;5035357;28;20036;-85
2022/12/18 04:03:39;;;;;;;52.13;25.27;;;-0.50;99.90;;;;;;5035768;28;20029;-84
2022/12/18 04:06:06;;;;;;;54.90;26.50;;;-0.50;99.90;;;;;;5035188;28;20087;-84
2022/12/18 04:08:34;;;;;;;51.17;24.70;;;-0.50;99.90;;;;;;5034829;28;20030;-85
2022/12/18 04:11:00;;;;;;;46.22;25.65;;;-0.60;99.90;;;;;;5017982;28;20053;-85
2022/12/18 04:13:35;;;;;;;48.50;24.85;;;-0.60;99.90;;;;;;5034909;28;20061;-85
2022/12/18 04:16:01;;;;;;;49.03;24.05;;;-0.50;99.90;;;;;;5035303;28;20029;-85
2022/12/18 04:18:26;;;;;;;49.88;24.92;;;-0.60;99.90;;;;;;5034737;28;20029;-85
2022/12/18 04:20:52;;;;;;;47.53;24.45;;;-0.60;99.90;;;;;;5035613;28;20052;-85
2022/12/18 04:23:18;;;;;;;50.95;25.27;;;-0.40;99.90;;;;;;5034847;28;20482;-84
2022/12/18 04:25:44;;;;;;;48.53;23.65;;;0.00;99.90;;;;;;5034425;28;20029;-84
2022/12/18 04:28:09;;;;;;;49.67;24.88;;;-0.60;99.90;;;;;;5035036;28;20033;-84
2022/12/18 04:30:35;;;;;;;48.50;23.85;;;-0.60;99.90;;;;;;5017320;28;20029;-84
2022/12/18 04:33:01;;;;;;;52.08;24.92;;;-0.50;99.90;;;;;;5035435;28;20030;-85
2022/12/18 04:35:27;;;;;;;46.80;23.50;;;-0.50;99.90;;;;;;5017161;28;20068;-84
2022/12/18 04:37:52;;;;;;;50.28;23.77;;;-0.50;99.90;;;;;;5034363;28;20460;-84
2022/12/18 04:40:18;;;;;;;48.90;23.40;;;-0.60;99.90;;;;;;5034456;28;20028;-84
2022/12/18 04:42:43;;;;;;;49.90;22.88;;;-0.50;99.90;;;;;;5035120;28;20493;-84
2022/12/18 04:45:09;;;;;;;51.15;24.45;;;-0.50;99.90;;;;;;5034386;28;20532;-85
2022/12/18 04:47:35;;;;;;;45.58;24.15;;;-0.50;99.90;;;;;;5035084;28;20075;-85
2022/12/18 04:50:01;;;;;;;51.92;23.80;;;-0.50;99.90;;;;;;5034461;28;20084;-85
2022/12/18 04:52:27;;;;;;;46.20;22.90;;;-0.50;99.90;;;;;;5034294;28;20033;-84
2022/12/18 04:54:52;;;;;;;50.88;24.35;;;-0.60;99.90;;;;;;5033984;28;20591;-84
2022/12/18 04:57:18;;;;;;;45.42;22.27;;;-0.60;99.90;;;;;;5020365;28;20056;-85
2022/12/18 04:59:44;;;;;;;51.10;24.23;;;-0.70;99.90;;;;;;5034629;28;20486;-84
2022/12/18 05:02:10;;;;;;;45.30;22.95;;;-0.70;99.90;;;;;;5016037;28;20121;-84
2022/12/18 05:04:35;;;;;;;46.70;22.80;;;-0.80;99.90;;;;;;5033597;28;20105;-84
2022/12/18 05:07:01;;;;;;;44.17;22.05;;;-0.70;99.90;;;;;;5016286;28;20478;-84
2022/12/18 05:09:26;;;;;;;46.75;22.15;;;-0.70;99.90;;;;;;5015825;28;20064;-85
2022/12/18 05:11:52;;;;;;;46.08;21.80;;;-0.80;99.90;;;;;;5033557;28;20037;-84
2022/12/18 05:14:18;;;;;;;45.67;21.05;;;-0.80;99.90;;;;;;5033941;28;20029;-85
2022/12/18 05:16:43;;;;;;;43.03;22.13;;;-0.80;99.90;;;;;;5019964;28;20498;-84
2022/12/18 05:19:09;;;;;;;52.50;23.98;;;-0.80;99.90;;;;;;5016115;28;20100;-84
2022/12/18 05:21:35;;;;;;;48.92;22.92;;;-0.80;99.90;;;;;;5033704;28;20481;-84
2022/12/18 05:24:00;;;;;;;46.17;23.10;;;-0.70;99.90;;;;;;5033922;28;20041;-84
2022/12/18 05:26:26;;;;;;;48.35;24.10;;;-0.70;99.90;;;;;;5033491;28;20021;-85
2022/12/18 05:28:51;;;;;;;46.28;23.55;;;-0.70;99.90;;;;;;5034224;28;20033;-85
2022/12/18 05:31:17;;;;;;;48.08;23.17;;;-0.60;99.90;;;;;;5033825;28;20477;-84
2022/12/18 05:33:43;;;;;;;47.90;23.35;;;-0.60;99.90;;;;;;5015933;28;20048;-84
2022/12/18 05:36:10;;;;;;;46.88;23.77;;;-0.60;99.90;;;;;;5015885;28;20029;-85
2022/12/18 05:38:38;;;;;;;46.60;24.27;;;-0.60;99.90;;;;;;5033218;28;20493;-85
2022/12/18 05:41:04;;;;;;;48.58;24.13;;;-0.60;99.90;;;;;;5034000;28;20025;-85
2022/12/18 05:43:30;;;;;;;45.50;21.80;;;-0.60;99.90;;;;;;5033045;28;20060;-85
2022/12/18 05:45:57;;;;;;;48.95;23.27;;;-0.50;99.90;;;;;;5031168;28;20103;-85
2022/12/18 05:48:23;;;;;;;43.63;22.40;;;-0.50;99.90;;;;;;5033568;28;20033;-84
2022/12/18 05:50:49;;;;;;;46.88;22.20;;;-0.60;99.90;;;;;;5032798;28;20113;-84
2022/12/18 05:53:17;;;;;;;48.17;23.05;;;-0.60;99.90;;;;;;5032694;28;20033;-84
2022/12/18 05:55:43;;;;;;;47.60;23.38;;;-0.60;99.90;;;;;;5033090;28;20045;-85
2022/12/18 05:58:11;;;;;;;41.70;22.70;;;-0.50;99.90;;;;;;5032621;28;20371;-84
2022/12/18 06:00:42;;;;;;;44.58;22.00;;;-0.50;99.90;;;;;;5033184;28;20025;-85
2022/12/18 06:03:08;;;;;;;45.97;22.08;;;-0.50;99.90;;;;;;5032646;28;20397;-85
2022/12/18 06:05:40;;;;;;;45.40;22.15;;;-0.50;99.90;;;;;;5033133;28;20393;-85
2022/12/18 06:08:05;;;;;;;45.58;22.75;;;-0.40;99.90;;;;;;5032506;28;20390;-85
2022/12/18 06:10:32;;;;;;;46.42;22.40;;;-0.50;99.90;;;;;;5015381;28;20030;-84
2022/12/18 06:12:57;;;;;;;44.17;21.13;;;-0.50;99.90;;;;;;5033155;28;20030;-85
2022/12/18 06:15:24;;;;;;;43.08;21.83;;;-0.60;99.90;;;;;;5015084;28;20371;-84
2022/12/18 06:17:50;;;;;;;40.60;21.10;;;-0.60;99.90;;;;;;5032184;28;20029;-85
2022/12/18 06:20:15;;;;;;;48.28;22.05;;;-0.60;99.90;;;;;;5031949;28;20052;-84
2022/12/18 06:22:41;;;;;;;44.42;21.20;;;-0.50;99.90;;;;;;5033073;28;20473;-85
2022/12/18 06:25:07;;;;;;;43.65;20.38;;;-0.70;99.90;;;;;;5032543;28;20057;-85
2022/12/18 06:27:33;;;;;;;40.78;20.13;;;-0.70;99.90;;;;;;5032709;28;20033;-84
2022/12/18 06:29:59;;;;;;;38.55;20.33;;;-0.80;99.90;;;;;;5032550;28;20041;-85
2022/12/18 06:32:25;;;;;;;41.08;20.02;;;-0.70;99.90;;;;;;5031910;28;20030;-85
2022/12/18 06:34:51;;;;;;;40.50;20.30;;;-0.60;99.90;;;;;;5032780;28;20036;-84
2022/12/18 06:37:17;;;;;;;38.50;19.10;;;-0.60;99.90;;;;;;5032806;28;20022;-84
2022/12/18 06:39:43;;;;;;;40.05;19.95;;;-0.60;99.90;;;;;;5032059;28;20513;-84
2022/12/18 06:42:08;;;;;;;43.05;20.35;;;-0.60;99.90;;;;;;5032502;28;20029;-85
2022/12/18 06:44:34;;;;;;;40.70;19.63;;;-0.20;99.90;;;;;;5032225;28;20037;-84
2022/12/18 06:47:00;;;;;;;40.92;20.08;;;-0.60;99.90;;;;;;5031506;28;20026;-85
2022/12/18 06:49:25;;;;;;;44.60;22.33;;;-0.50;99.90;;;;;;5032218;28;20040;-85
2022/12/18 06:51:51;;;;;;;44.08;20.40;;;-0.40;99.90;;;;;;5032809;28;20014;-85
2022/12/18 06:54:17;;;;;;;40.58;21.88;;;-0.40;99.90;;;;;;5031692;28;20437;-85
2022/12/18 06:56:45;;;;;;;40.35;21.33;;;-0.30;99.90;;;;;;5014197;28;20021;-85
2022/12/18 06:59:12;;;;;;;42.70;21.00;;;-0.30;99.90;;;;;;5014531;28;20040;-84
2022/12/18 07:01:37;;;;;;;42.65;21.80;;;0.00;99.90;;;;;;5031308;28;20060;-85
2022/12/18 07:04:03;;;;;;;42.92;21.08;;;0.40;99.90;;;;;;5032118;28;20067;-86
2022/12/18 07:06:29;;;;;;;43.33;20.65;;;-0.20;99.90;;;;;;5032295;28;20477;-85
2022/12/18 07:08:55;;;;;;;42.53;20.27;;;-0.30;99.90;;;;;;5031849;28;20489;-84
2022/12/18 07:11:20;;;;;;;39.95;20.10;;;-0.30;99.90;;;;;;5032405;28;20484;-85
2022/12/18 07:13:47;;;;;;;42.20;22.77;;;-0.30;99.90;;;;;;5031768;28;20124;-85
2022/12/18 07:16:15;;;;;;;46.08;22.77;;;-0.30;99.90;;;;;;5013497;28;20094;-85
2022/12/18 07:18:41;;;;;;;39.40;20.52;;;-0.40;99.90;;;;;;5016628;28;20040;-85
2022/12/18 07:21:12;;;;;;;42.50;21.10;;;-0.30;99.90;;;;;;5014599;28;20026;-85
2022/12/18 07:23:38;;;;;;;39.15;20.60;;;-0.20;99.90;;;;;;5032154;28;20021;-84
2022/12/18 07:26:05;;;;;;;44.33;23.00;;;-0.10;99.90;;;;;;5031589;28;20033;-85
2022/12/18 07:28:31;;;;;;;42.35;22.15;;;-0.10;99.90;;;;;;5031813;28;20448;-85
2022/12/18 07:30:58;;;;;;;38.05;21.23;;;0.00;99.90;;;;;;5030505;28;20026;-85
2022/12/18 07:33:24;;;;;;;46.53;25.50;;;0.20;99.90;;;;;;5031653;28;20032;-82
2022/12/18 07:35:50;;;;;;;40.38;23.23;;;1.00;99.90;;;;;;5030700;28;20037;-82
2022/12/18 07:38:15;;;;;;;42.22;22.95;;;1.50;99.90;;;;;;5027208;28;20096;-82
2022/12/18 07:40:41;;;;;;;40.63;21.58;;;1.60;99.90;;;;;;5032167;28;20100;-82
2022/12/18 07:43:07;;;;;;;40.95;23.98;;;1.70;99.90;;;;;;5012819;28;20026;-82
2022/12/18 07:45:32;;;;;;;41.10;24.75;;;1.80;99.90;;;;;;5012337;28;20030;-82
2022/12/18 07:47:58;;;;;;;38.55;21.77;;;2.00;99.90;;;;;;5012155;28;20576;-81
2022/12/18 07:50:23;;;;;;;35.17;19.88;;;2.10;99.90;;;;;;5028011;28;20029;-82
2022/12/18 07:52:49;;;;;;;39.50;23.48;;;2.50;99.90;;;;;;5031756;28;20067;-82
2022/12/18 07:55:15;;;;;;;39.63;22.88;;;4.40;99.90;;;;;;5031797;28;20041;-82
2022/12/18 07:57:40;;;;;;;38.30;22.35;;;4.50;99.90;;;;;;5030757;28;20034;-83
2022/12/18 08:00:07;;;;;;;40.08;23.95;;;4.50;99.90;;;;;;5031861;28;20026;-82
2022/12/18 08:02:33;;;;;;;35.45;22.45;;;5.00;99.90;;;;;;5031823;28;20032;-82
2022/12/18 08:04:59;;;;;;;32.47;21.50;;;6.20;99.90;;;;;;5030650;28;20026;-80
2022/12/18 08:07:24;;;;;;;33.67;20.73;;;6.80;99.90;;;;;;5031930;28;20018;-85
2022/12/18 08:09:50;;;;;;;23.95;16.77;;;7.20;99.90;;;;;;5031976;28;20034;-82
2022/12/18 08:12:15;;;;;;;26.40;16.88;;;6.50;99.90;;;;;;5031937;28;20087;-82
2022/12/18 08:14:41;;;;;;;21.88;15.07;;;6.30;99.90;;;;;;5030873;28;20029;-82
2022/12/18 08:17:06;;;;;;;23.35;15.30;;;4.80;99.90;;;;;;5020418;28;20049;-82
2022/12/18 08:19:32;;;;;;;23.48;14.77;;;4.70;99.90;;;;;;5011881;28;20110;-82
2022/12/18 08:21:58;;;;;;;20.63;13.68;;;6.10;99.90;;;;;;5011833;28;20081;-82
2022/12/18 08:24:24;;;;;;;19.83;14.00;;;7.70;99.90;;;;;;5012278;28;20056;-82
2022/12/18 08:26:50;;;;;;;19.38;13.70;;;9.10;99.90;;;;;;4994301;28;20026;-83
2022/12/18 08:29:16;;;;;;;18.13;12.35;;;12.30;99.90;;;;;;5011488;28;20022;-83
2022/12/18 08:31:41;;;;;;;17.00;12.10;;;13.20;99.90;;;;;;5011631;28;20037;-84
2022/12/18 08:34:08;;;;;;;16.67;12.32;;;12.70;99.90;;;;;;5023379;28;20029;-83
2022/12/18 08:36:33;;;;;;;16.45;11.65;;;12.40;99.90;;;;;;5031468;28;20033;-83
2022/12/18 08:38:59;;;;;;;16.00;11.45;;;12.50;99.90;;;;;;5031410;28;20390;-83
2022/12/18 08:41:25;;;;;;;15.10;11.32;;;13.20;99.90;;;;;;5031509;28;20028;-83
2022/12/18 08:46:41;;;;;;;15.95;11.75;;;16.20;99.90;;;;;;5035161;28;20064;-83
2022/12/18 08:49:07;;;;;;;15.68;11.00;;;17.10;99.90;;;;;;5035323;28;20440;-83
2022/12/18 08:51:33;;;;;;;13.35;10.30;;;17.30;99.90;;;;;;5034912;28;20026;-83
2022/12/18 08:53:59;;;;;;;14.63;10.65;;;18.00;99.90;;;;;;5034756;28;20043;-83
2022/12/18 08:56:24;;;;;;;11.30;9.82;;;17.10;99.90;;;;;;5034941;28;20466;-84
2022/12/18 08:58:54;;;;;;;11.43;9.90;;;17.70;99.90;;;;;;5034403;28;20041;-83
2022/12/18 09:01:20;;;;;;;12.30;9.57;;;18.80;99.90;;;;;;5017311;28;20527;-83
2022/12/18 09:03:46;;;;;;;13.93;10.70;;;18.60;99.90;;;;;;5034550;28;20482;-84
2022/12/18 09:06:17;;;;;;;13.80;10.82;;;18.10;99.90;;;;;;5034615;28;20064;-84
2022/12/18 09:08:44;;;;;;;13.85;9.75;;;17.40;99.90;;;;;;5034663;28;20025;-84
2022/12/18 09:11:15;;;;;;;11.75;9.82;;;15.60;99.90;;;;;;5034541;28;20024;-83
2022/12/18 09:13:41;;;;;;;13.90;10.85;;;14.20;99.90;;;;;;5034140;28;20402;-83
2022/12/18 09:16:07;;;;;;;15.80;11.32;;;14.00;99.90;;;;;;5034190;28;20041;-83
2022/12/18 09:18:32;;;;;;;12.98;10.93;;;15.80;99.90;;;;;;5016625;28;20040;-84
2022/12/18 09:20:58;;;;;;;12.85;10.88;;;14.90;99.90;;;;;;5034382;28;20026;-83
2022/12/18 09:23:23;;;;;;;14.85;11.13;;;17.40;99.90;;;;;;5034184;28;20048;-83
2022/12/18 09:25:49;;;;;;;13.00;10.77;;;16.80;99.90;;;;;;5034704;28;20029;-83
2022/12/18 09:28:17;;;;;;;13.18;10.55;;;18.70;99.90;;;;;;5034033;28;20099;-83
2022/12/18 09:30:48;;;;;;;14.10;10.98;;;19.30;99.90;;;;;;5034001;28;20494;-84
2022/12/18 09:33:14;;;;;;;12.68;10.80;;;17.70;99.90;;;;;;5016379;28;20690;-83
2022/12/18 09:35:41;;;;;;;12.55;10.85;;;19.60;99.90;;;;;;5033966;28;20087;-84
2022/12/18 09:38:11;;;;;;;13.35;10.80;;;18.30;99.90;;;;;;5034468;28;20029;-83
2022/12/18 09:40:42;;;;;;;13.55;10.55;;;16.90;99.90;;;;;;5033751;28;20433;-81
2022/12/18 09:43:17;;;;;;;11.63;10.32;;;18.50;99.90;;;;;;5033818;28;20429;-84
2022/12/18 09:45:45;;;;;;;11.18;9.95;;;18.00;99.90;;;;;;5033629;28;20033;-84
2022/12/18 09:48:34;;;;;;;12.98;10.45;;;15.70;99.90;;;;;;5034035;28;20497;-84
2022/12/18 09:51:15;;;;;;;12.63;10.73;;;15.40;99.90;;;;;;5033600;28;20375;-84
2022/12/18 09:53:46;;;;;;;14.30;10.60;;;16.30;99.90;;;;;;5014500;28;20030;-84
2022/12/18 09:56:19;;;;;;;13.57;9.52;;;16.30;99.90;;;;;;5013933;28;20052;-84
2022/12/18 09:58:57;;;;;;;18.25;10.77;;;14.60;99.90;;;;;;5031075;28;20026;-83
2022/12/18 10:01:24;;;;;;;12.07;9.15;;;15.10;99.90;;;;;;5033991;28;20108;-83
2022/12/18 10:03:51;;;;;;;12.50;9.13;;;14.60;99.90;;;;;;5033439;28;20030;-83
2022/12/18 10:06:29;;;;;;;16.00;9.80;;;14.90;99.90;;;;;;5033276;28;20437;-83
2022/12/18 10:09:26;;;;;;;10.82;9.07;;;16.40;99.90;;;;;;5033595;28;20071;-84
2022/12/18 10:12:19;;;;;;;13.90;9.48;;;15.90;99.90;;;;;;5020357;28;20036;-84
2022/12/18 10:15:06;;;;;;;15.65;10.07;;;16.00;99.90;;;;;;5033235;28;20442;-83
2022/12/18 10:18:07;;;;;;;12.27;9.80;;;16.00;99.90;;;;;;5033149;28;20052;-83
2022/12/18 10:20:56;;;;;;;12.38;9.60;;;15.80;99.90;;;;;;5011442;28;20430;-84
2022/12/18 10:23:57;;;;;;;12.30;10.32;;;17.50;99.90;;;;;;5033387;28;20013;-84
2022/12/18 10:26:24;;;;;;;12.48;10.23;;;17.40;99.90;;;;;;5032724;28;20508;-84
2022/12/18 10:28:51;;;;;;;13.18;10.38;;;16.40;99.90;;;;;;5033467;28;20037;-84
2022/12/18 10:31:23;;;;;;;14.27;10.48;;;17.30;99.90;;;;;;5014866;28;20034;-84
2022/12/18 10:33:48;;;;;;;14.20;10.68;;;16.70;99.90;;;;;;5033107;28;20029;-84
2022/12/18 10:36:14;;;;;;;13.68;10.02;;;17.20;99.90;;;;;;5033214;28;20022;-84
2022/12/18 10:38:40;;;;;;;14.75;10.13;;;16.50;99.90;;;;;;5032355;28;20078;-84
2022/12/18 10:41:18;;;;;;;13.02;10.75;;;18.20;99.90;;;;;;5033065;28;20339;-85
2022/12/18 10:43:44;;;;;;;14.85;10.55;;;20.00;99.90;;;;;;5032700;28;20394;-83
2022/12/18 10:46:10;;;;;;;14.98;11.30;;;19.70;99.90;;;;;;5032844;28;20033;-84
2022/12/18 10:48:56;;;;;;;13.90;11.23;;;19.50;99.90;;;;;;5033150;28;20397;-84
2022/12/18 10:51:34;;;;;;;14.73;11.98;;;19.50;99.90;;;;;;5033035;28;20083;-84
2022/12/18 10:54:18;;;;;;;12.18;10.52;;;19.30;99.90;;;;;;5032338;28;20087;-84
2022/12/18 10:56:44;;;;;;;13.00;11.50;;;18.00;99.90;;;;;;5028057;28;20075;-84
2022/12/18 10:59:13;;;;;;;12.27;10.98;;;19.10;99.90;;;;;;5013182;28;20026;-84
2022/12/18 11:01:49;;;;;;;13.20;10.77;;;18.60;99.90;;;;;;5024439;28;20021;-84
2022/12/18 11:04:23;;;;;;;12.05;10.75;;;19.30;99.90;;;;;;5032483;28;20033;-84
2022/12/18 11:07:06;;;;;;;12.73;11.07;;;18.70;99.90;;;;;;5031881;28;20029;-84
2022/12/18 11:09:34;;;;;;;13.18;10.77;;;19.50;99.90;;;;;;5014395;28;20401;-85
2022/12/18 11:12:03;;;;;;;14.50;10.20;;;19.70;99.90;;;;;;5032409;28;20021;-84
2022/12/18 11:14:33;;;;;;;12.10;9.88;;;20.80;99.90;;;;;;5032599;28;20033;-84
2022/12/18 11:17:00;;;;;;;12.95;10.40;;;18.10;99.90;;;;;;5032219;28;20045;-84
2022/12/18 11:19:31;;;;;;;13.02;10.88;;;18.00;99.90;;;;;;5032127;28;20227;-84
2022/12/18 11:21:57;;;;;;;11.10;9.77;;;17.40;99.90;;;;;;5032519;28;20025;-84
2022/12/18 11:24:31;;;;;;;11.75;10.15;;;17.30;99.90;;;;;;5031913;28;20087;-84
2022/12/18 11:27:02;;;;;;;11.13;9.07;;;18.60;99.90;;;;;;5032656;28;20512;-85
2022/12/18 11:29:39;;;;;;;11.25;9.95;;;18.50;99.90;;;;;;5032662;28;20108;-84
2022/12/18 11:32:23;;;;;;;11.00;8.95;;;19.50;99.90;;;;;;5032143;28;20072;-84
2022/12/18 11:34:55;;;;;;;19.95;16.92;;;18.10;99.90;;;;;;5031980;28;20088;-84
2022/12/18 11:37:21;;;;;;;9.85;8.85;;;18.30;99.90;;;;;;5031745;28;20057;-84
2022/12/18 11:39:56;;;;;;;11.27;9.18;;;19.90;99.90;;;;;;5032213;28;20056;-84
2022/12/18 11:42:44;;;;;;;10.25;9.05;;;19.50;99.90;;;;;;5032096;28;20028;-84
2022/12/18 11:45:12;;;;;;;10.88;8.48;;;19.50;99.90;;;;;;5031961;28;20034;-84
2022/12/18 11:47:59;;;;;;;10.98;7.80;;;19.40;99.90;;;;;;5032011;28;20026;-85
2022/12/18 11:50:42;;;;;;;8.90;7.13;;;19.90;99.90;;;;;;5031839;28;20729;-84
2022/12/18 11:53:12;;;;;;;9.75;7.10;;;19.90;99.90;;;;;;5031299;28;20494;-84
2022/12/18 11:55:44;;;;;;;7.45;6.20;;;20.00;99.90;;;;;;5032075;28;20034;-84
2022/12/18 11:58:10;;;;;;;8.38;6.20;;;20.90;99.90;;;;;;5031951;28;20057;-85
2022/12/18 12:00:49;;;;;;;7.45;6.38;;;21.20;99.90;;;;;;5031772;28;20033;-85
2022/12/18 12:03:41;;;;;;;9.05;5.90;;;20.60;99.90;;;;;;5032465;28;20505;-85
2022/12/18 12:06:39;;;;;;;6.75;5.45;;;21.30;99.90;;;;;;4931951;29;20036;-85
2022/12/18 12:09:12;;;;;;;6.93;5.20;;;19.70;99.90;;;;;;4932383;29;20036;-85
2022/12/18 12:12:10;;;;;;;6.32;5.32;;;20.60;99.90;;;;;;4932256;29;20040;-84
2022/12/18 12:15:10;;;;;;;7.20;5.57;;;20.00;99.90;;;;;;4875717;29;20084;-84
2022/12/18 12:17:51;;;;;;;5.35;4.47;;;19.50;99.90;;;;;;4875891;29;20049;-85
2022/12/18 12:20:20;;;;;;;5.82;5.00;;;19.90;99.90;;;;;;4879181;29;20029;-84
2022/12/18 12:22:57;;;;;;;6.20;4.88;;;19.90;99.90;;;;;;4879511;29;20041;-85
2022/12/18 12:25:46;;;;;;;5.78;5.00;;;19.30;99.90;;;;;;4879782;29;20120;-84
2022/12/18 12:28:30;;;;;;;6.30;4.70;;;19.90;99.90;;;;;;4879369;29;20036;-85
2022/12/18 12:31:14;;;;;;;6.00;5.03;;;19.60;99.90;;;;;;4879343;29;20045;-85
2022/12/18 12:34:06;;;;;;;6.05;4.65;;;19.30;99.90;;;;;;4879068;29;20119;-85
2022/12/18 12:36:58;;;;;;;5.40;4.85;;;19.30;99.90;;;;;;4878777;29;20044;-85
2022/12/18 12:39:32;;;;;;;6.65;5.03;;;19.60;99.90;;;;;;4879070;29;20124;-85
2022/12/18 12:44:54;;;;;;;6.43;5.30;;;19.10;99.90;;;;;;4935947;29;20050;-84
2022/12/18 12:47:30;;;;;;;8.25;5.25;;;19.70;99.90;;;;;;4935656;29;20087;-85
2022/12/18 12:49:59;;;;;;;5.50;4.97;;;20.50;99.90;;;;;;4974392;28;20038;-85
2022/12/18 12:52:35;;;;;;;5.65;5.05;;;20.10;99.90;;;;;;5034996;28;20108;-84
2022/12/18 12:55:03;;;;;;;5.82;5.22;;;19.70;99.90;;;;;;5034713;28;20049;-85